createdAt,value
2023-02-20T00:01:57.457Z,89.21
2023-02-20T00:04:00.489Z,89.88
2023-02-20T00:06:03.603Z,89.54
2023-02-20T00:08:06.769Z,89.83
2023-02-20T00:10:10.527Z,90.80
2023-02-20T00:12:13.618Z,90.16
2023-02-20T00:14:16.659Z,90.53
2023-02-20T00:16:21.013Z,89.82
2023-02-20T00:18:25.303Z,90.17
2023-02-20T00:20:30.227Z,89.17
2023-02-20T00:22:33.313Z,89.39
2023-02-20T00:24:36.396Z,89.58
2023-02-20T00:26:39.443Z,89.90
2023-02-20T00:28:43.854Z,90.46
2023-02-20T00:30:46.939Z,89.40
2023-02-20T00:32:53.082Z,89.72
2023-02-20T00:34:57.764Z,90.18
2023-02-20T00:37:00.764Z,89.65
2023-02-20T00:39:03.852Z,89.76
2023-02-20T00:41:07.356Z,90.19
2023-02-20T00:43:10.446Z,89.25
2023-02-20T00:45:14.143Z,89.96
2023-02-20T00:47:17.262Z,90.63
2023-02-20T00:49:21.740Z,89.47
2023-02-20T00:51:24.973Z,89.66
2023-02-20T00:53:28.236Z,90.56
2023-02-20T00:55:31.235Z,90.41
2023-02-20T00:57:34.345Z,90.73
2023-02-20T00:59:37.477Z,90.05
2023-02-20T01:01:40.569Z,90.29
2023-02-20T01:03:43.697Z,90.24
2023-02-20T01:05:48.223Z,90.67
2023-02-20T01:07:51.308Z,90.12
2023-02-20T01:09:54.402Z,89.93
2023-02-20T01:11:57.499Z,90.17
2023-02-20T01:14:00.766Z,90.11
2023-02-20T01:16:04.027Z,90.12
2023-02-20T01:18:07.411Z,89.83
2023-02-20T01:20:11.890Z,89.70
2023-02-20T01:22:16.324Z,89.82
2023-02-20T01:24:20.001Z,89.55
2023-02-20T01:26:23.944Z,90.20
2023-02-20T01:28:27.350Z,90.61
2023-02-20T01:30:30.442Z,91.22
2023-02-20T01:32:33.792Z,91.12
2023-02-20T01:34:36.820Z,91.02
2023-02-20T01:36:39.894Z,90.88
2023-02-20T01:38:44.293Z,91.00
2023-02-20T01:40:48.977Z,90.77
2023-02-20T01:42:52.247Z,91.26
2023-02-20T01:44:55.278Z,91.61
2023-02-20T01:46:59.808Z,91.10
2023-02-20T01:49:06.111Z,91.21
2023-02-20T01:51:09.197Z,91.53
2023-02-20T01:53:14.511Z,91.14
2023-02-20T01:55:23.863Z,91.05
2023-02-20T01:57:30.028Z,90.84
2023-02-20T01:59:34.764Z,90.40
2023-02-20T02:01:38.033Z,90.34
2023-02-20T02:03:44.989Z,89.71
2023-02-20T02:05:50.241Z,90.32
2023-02-20T02:07:53.322Z,90.05
2023-02-20T02:09:59.244Z,90.86
2023-02-20T02:12:06.651Z,90.27
2023-02-20T02:14:09.733Z,90.10
2023-02-20T02:16:21.384Z,90.38
2023-02-20T02:18:42.634Z,91.09
2023-02-20T02:21:16.503Z,90.90
2023-02-20T02:23:55.720Z,90.80
2023-02-20T02:26:01.524Z,91.20
2023-02-20T02:28:28.913Z,90.66
2023-02-20T02:30:48.270Z,89.63
2023-02-20T02:33:05.518Z,90.61
2023-02-20T02:35:26.801Z,90.14
2023-02-20T02:37:34.660Z,89.71
2023-02-20T02:39:44.202Z,90.38
2023-02-20T02:41:51.979Z,90.45
2023-02-20T02:43:58.272Z,90.22
2023-02-20T02:46:05.580Z,89.32
2023-02-20T02:48:15.054Z,89.76
2023-02-20T02:50:21.192Z,90.48
2023-02-20T02:52:46.724Z,89.65
2023-02-20T02:54:51.392Z,90.00
2023-02-20T02:56:56.304Z,90.09
2023-02-20T02:59:00.109Z,90.64
2023-02-20T03:01:03.736Z,89.22
2023-02-20T03:03:10.262Z,89.02
2023-02-20T03:05:17.040Z,90.44
2023-02-20T03:07:20.885Z,90.58
2023-02-20T03:09:28.453Z,91.44
2023-02-20T03:11:34.500Z,91.73
2023-02-20T03:13:59.930Z,93.42
2023-02-20T03:16:02.995Z,93.79
2023-02-20T03:18:15.880Z,93.23
2023-02-20T03:20:20.369Z,92.69
2023-02-20T03:22:26.650Z,93.77
2023-02-20T03:24:30.373Z,92.16
2023-02-20T03:26:37.108Z,93.52
2023-02-20T03:28:42.674Z,93.38
2023-02-20T03:30:50.410Z,91.78
2023-02-20T03:33:15.637Z,91.33
2023-02-20T03:35:37.493Z,91.93
2023-02-20T03:37:59.721Z,91.41
2023-02-20T03:40:23.422Z,92.36
2023-02-20T03:42:53.568Z,93.44
2023-02-20T03:45:04.785Z,94.11
2023-02-20T03:47:10.530Z,93.83
2023-02-20T03:49:15.427Z,94.44
2023-02-20T03:51:20.378Z,93.83
2023-02-20T03:53:29.588Z,93.46
2023-02-20T03:55:33.249Z,95.05
2023-02-20T03:57:44.576Z,94.79
2023-02-20T03:59:50.451Z,94.05
2023-02-20T04:01:57.779Z,94.86
2023-02-20T04:04:01.087Z,93.51
2023-02-20T04:06:05.924Z,93.84
2023-02-20T04:08:15.372Z,93.25
2023-02-20T04:10:23.910Z,93.51
2023-02-20T04:12:28.897Z,93.25
2023-02-20T04:14:33.538Z,93.50
2023-02-20T04:16:51.659Z,92.78
2023-02-20T04:18:55.168Z,92.39
2023-02-20T04:20:59.773Z,92.20
2023-02-20T04:23:16.425Z,92.96
2023-02-20T04:25:26.331Z,92.29
2023-02-20T04:27:29.566Z,92.81
2023-02-20T04:29:35.462Z,91.77
2023-02-20T04:31:38.669Z,91.58
2023-02-20T04:33:42.308Z,92.04
2023-02-20T04:35:52.396Z,91.76
2023-02-20T04:37:56.224Z,92.16
2023-02-20T04:39:59.323Z,91.93
2023-02-20T04:42:03.558Z,91.13
2023-02-20T04:44:24.429Z,90.75
2023-02-20T04:46:29.928Z,91.32
2023-02-20T04:48:33.126Z,91.68
2023-02-20T04:50:37.064Z,91.03
2023-02-20T04:52:41.786Z,90.82
2023-02-20T04:54:45.012Z,90.60
2023-02-20T04:56:50.422Z,90.46
2023-02-20T04:58:53.618Z,90.44
2023-02-20T05:00:58.966Z,90.69
2023-02-20T05:03:03.620Z,90.81
2023-02-20T05:05:08.727Z,89.99
2023-02-20T05:07:11.796Z,90.27
2023-02-20T05:09:14.963Z,89.73
2023-02-20T05:11:18.246Z,90.34
2023-02-20T05:13:21.283Z,89.33
2023-02-20T05:15:24.549Z,90.10
2023-02-20T05:17:27.589Z,89.99
2023-02-20T05:19:32.025Z,89.87
2023-02-20T05:21:52.536Z,89.33
2023-02-20T05:23:55.582Z,89.92
2023-02-20T05:25:58.669Z,90.79
2023-02-20T05:28:01.836Z,90.50
2023-02-20T05:30:06.079Z,90.12
2023-02-20T05:32:09.314Z,89.94
2023-02-20T05:34:12.440Z,89.77
2023-02-20T05:36:17.348Z,89.94
2023-02-20T05:38:21.139Z,90.06
2023-02-20T05:40:24.379Z,89.93
2023-02-20T05:42:27.396Z,89.98
2023-02-20T05:44:30.667Z,90.12
2023-02-20T05:46:33.738Z,90.32
2023-02-20T05:48:36.879Z,90.05
2023-02-20T05:50:39.967Z,90.31
2023-02-20T05:52:44.964Z,90.22
2023-02-20T05:54:48.787Z,90.20
2023-02-20T05:56:52.562Z,90.08
2023-02-20T05:58:55.639Z,90.05
2023-02-20T06:00:58.686Z,90.24
2023-02-20T06:03:01.738Z,90.36
2023-02-20T06:05:05.628Z,90.28
2023-02-20T06:07:10.341Z,90.05
2023-02-20T06:09:16.852Z,89.67
2023-02-20T06:11:19.875Z,89.97
2023-02-20T06:13:22.995Z,90.38
2023-02-20T06:15:26.090Z,90.29
2023-02-20T06:17:30.556Z,90.62
2023-02-20T06:19:33.681Z,90.47
2023-02-20T06:21:37.699Z,90.53
2023-02-20T06:23:41.148Z,89.74
2023-02-20T06:25:45.734Z,90.63
2023-02-20T06:27:48.802Z,89.86
2023-02-20T06:29:51.945Z,89.50
2023-02-20T06:31:55.250Z,89.37
2023-02-20T06:33:58.370Z,88.55
2023-02-20T06:36:01.514Z,89.31
2023-02-20T06:38:04.694Z,88.75
2023-02-20T06:40:08.541Z,88.83
2023-02-20T06:42:13.064Z,88.42
2023-02-20T06:44:16.211Z,89.13
2023-02-20T06:46:19.531Z,88.81
2023-02-20T06:48:22.623Z,89.05
2023-02-20T06:50:25.727Z,89.48
2023-02-20T06:52:28.831Z,88.97
2023-02-20T06:54:31.920Z,88.75
2023-02-20T06:56:36.368Z,89.05
2023-02-20T06:58:41.113Z,89.05
2023-02-20T07:00:44.232Z,89.06
2023-02-20T07:02:47.376Z,89.54
2023-02-20T07:04:51.047Z,88.82
2023-02-20T07:06:54.333Z,88.51
2023-02-20T07:08:57.435Z,88.71
2023-02-20T07:11:00.853Z,87.66
2023-02-20T07:13:06.290Z,88.88
2023-02-20T07:15:11.963Z,88.01
2023-02-20T07:17:15.022Z,88.69
2023-02-20T07:19:18.299Z,88.17
2023-02-20T07:21:21.525Z,88.15
2023-02-20T07:23:24.730Z,88.13
2023-02-20T07:25:27.828Z,88.00
2023-02-20T07:27:30.890Z,87.44
2023-02-20T07:29:33.975Z,87.94
2023-02-20T07:31:39.238Z,87.31
2023-02-20T07:33:43.668Z,87.96
2023-02-20T07:35:47.184Z,86.25
2023-02-20T07:37:51.250Z,86.83
2023-02-20T07:39:54.332Z,85.68
2023-02-20T07:41:57.354Z,84.82
2023-02-20T07:44:15.449Z,84.59
2023-02-20T07:46:20.340Z,84.85
2023-02-20T07:48:25.328Z,83.70
2023-02-20T07:50:28.437Z,82.35
2023-02-20T07:52:31.614Z,84.24
2023-02-20T07:54:34.726Z,82.38
2023-02-20T07:56:38.014Z,81.12
2023-02-20T07:58:41.194Z,82.22
2023-02-20T08:00:44.436Z,82.35
2023-02-20T08:02:48.028Z,80.33
2023-02-20T08:04:52.539Z,82.08
2023-02-20T08:06:55.755Z,80.55
2023-02-20T08:08:58.849Z,79.96
2023-02-20T08:11:08.657Z,80.19
2023-02-20T08:13:13.170Z,79.42
2023-02-20T08:15:16.488Z,78.61
2023-02-20T08:17:19.975Z,77.28
2023-02-20T08:19:23.114Z,78.08
2023-02-20T08:21:27.818Z,78.19
2023-02-20T08:23:32.016Z,77.13
2023-02-20T08:25:35.563Z,77.97
2023-02-20T08:27:43.279Z,78.68
2023-02-20T08:29:46.812Z,79.50
2023-02-20T08:31:51.016Z,78.01
2023-02-20T08:33:57.037Z,78.58
2023-02-20T08:36:00.495Z,77.84
2023-02-20T08:38:06.744Z,78.68
2023-02-20T08:40:11.307Z,76.87
2023-02-20T08:42:16.849Z,77.82
2023-02-20T08:44:20.767Z,76.49
2023-02-20T08:46:28.335Z,76.33
2023-02-20T08:48:31.606Z,75.71
2023-02-20T08:50:34.894Z,77.29
2023-02-20T08:52:37.959Z,76.15
2023-02-20T08:54:46.937Z,75.21
2023-02-20T08:56:51.455Z,76.46
2023-02-20T08:58:54.921Z,75.53
2023-02-20T09:00:58.200Z,76.63
2023-02-20T09:03:01.486Z,74.78
2023-02-20T09:05:07.672Z,75.04
2023-02-20T09:07:11.179Z,73.46
2023-02-20T09:09:14.743Z,73.83
2023-02-20T09:11:19.576Z,73.99
2023-02-20T09:13:22.591Z,74.28
2023-02-20T09:15:26.542Z,74.19
2023-02-20T09:17:30.700Z,73.95
2023-02-20T09:19:34.046Z,72.92
2023-02-20T09:21:37.548Z,73.51
2023-02-20T09:23:41.203Z,74.07
2023-02-20T09:25:44.402Z,73.10
2023-02-20T09:27:48.900Z,72.46
2023-02-20T09:29:52.043Z,72.01
2023-02-20T09:31:55.436Z,70.00
2023-02-20T09:33:58.642Z,70.13
2023-02-20T09:36:01.766Z,70.16
2023-02-20T09:38:07.147Z,70.94
2023-02-20T09:40:11.358Z,69.07
2023-02-20T09:42:24.888Z,70.30
2023-02-20T09:44:33.840Z,70.37
2023-02-20T09:46:37.248Z,69.45
2023-02-20T09:48:59.795Z,69.61
2023-02-20T09:51:05.095Z,70.85
2023-02-20T09:53:18.090Z,71.65
2023-02-20T09:55:22.400Z,69.28
2023-02-20T09:57:27.784Z,71.29
2023-02-20T09:59:34.934Z,70.78
2023-02-20T10:01:41.501Z,72.32
2023-02-20T10:03:54.454Z,67.99
2023-02-20T10:05:58.261Z,70.60
2023-02-20T10:08:01.292Z,69.15
2023-02-20T10:10:18.635Z,69.93
2023-02-20T10:12:26.774Z,70.10
2023-02-20T10:14:44.341Z,70.18
2023-02-20T10:16:53.159Z,70.98
2023-02-20T10:19:04.118Z,70.17
2023-02-20T10:21:13.320Z,70.86
2023-02-20T10:23:24.205Z,70.98
2023-02-20T10:25:30.743Z,69.67
2023-02-20T10:27:43.056Z,69.49
2023-02-20T10:29:48.034Z,69.54
2023-02-20T10:31:54.006Z,70.97
2023-02-20T10:34:00.846Z,67.83
2023-02-20T10:36:09.894Z,69.38
2023-02-20T10:38:15.377Z,68.43
2023-02-20T10:40:22.147Z,68.29
2023-02-20T10:42:31.091Z,69.39
2023-02-20T10:44:50.103Z,70.48
2023-02-20T10:47:00.076Z,69.02
2023-02-20T10:49:10.263Z,67.31
2023-02-20T10:51:17.254Z,69.23
2023-02-20T10:53:26.966Z,68.40
2023-02-20T10:55:34.920Z,68.05
2023-02-20T10:57:41.283Z,68.19
2023-02-20T10:59:50.844Z,67.46
2023-02-20T11:01:59.625Z,67.98
2023-02-20T11:04:06.171Z,67.24
2023-02-20T11:06:12.766Z,67.30
2023-02-20T11:08:21.151Z,67.92
2023-02-20T11:10:24.317Z,68.78
2023-02-20T11:12:32.461Z,68.19
2023-02-20T11:14:43.073Z,68.89
2023-02-20T11:16:50.780Z,70.04
2023-02-20T11:19:04.236Z,68.85
2023-02-20T11:21:07.420Z,69.21
2023-02-20T11:23:11.673Z,69.71
2023-02-20T11:25:20.042Z,68.10
2023-02-20T11:27:24.190Z,69.55
2023-02-20T11:29:31.343Z,67.96
2023-02-20T11:31:36.043Z,68.28
2023-02-20T11:33:45.615Z,69.12
2023-02-20T11:35:51.726Z,70.30
2023-02-20T11:38:23.936Z,68.83
2023-02-20T11:40:29.017Z,69.70
2023-02-20T11:42:34.708Z,69.60
2023-02-20T11:44:37.851Z,69.34
2023-02-20T11:46:41.172Z,68.18
2023-02-20T11:49:01.105Z,68.80
2023-02-20T11:51:06.047Z,68.70
2023-02-20T11:53:19.700Z,68.19
2023-02-20T11:55:27.523Z,69.27
2023-02-20T11:57:31.238Z,69.18
2023-02-20T11:59:37.760Z,68.48
2023-02-20T12:01:43.312Z,69.25
2023-02-20T12:03:56.029Z,68.81
2023-02-20T12:06:00.505Z,69.34
2023-02-20T12:08:05.398Z,69.13
2023-02-20T12:10:24.733Z,69.66
2023-02-20T12:12:30.330Z,67.19
2023-02-20T12:14:33.442Z,69.18
2023-02-20T12:16:55.975Z,69.11
2023-02-20T12:19:05.409Z,70.99
2023-02-20T12:21:29.742Z,67.52
2023-02-20T12:23:40.719Z,69.70
2023-02-20T12:25:54.354Z,68.97
2023-02-20T12:28:10.653Z,69.35
2023-02-20T12:30:34.879Z,69.33
2023-02-20T12:32:49.304Z,71.66
2023-02-20T12:35:01.521Z,70.32
2023-02-20T12:37:09.347Z,70.59
2023-02-20T12:39:20.423Z,68.91
2023-02-20T12:41:30.836Z,69.14
2023-02-20T12:43:42.176Z,69.25
2023-02-20T12:45:50.778Z,68.98
2023-02-20T12:48:03.483Z,70.12
2023-02-20T12:50:27.592Z,68.07
2023-02-20T12:52:42.097Z,67.21
2023-02-20T12:54:52.202Z,67.60
2023-02-20T12:57:04.672Z,66.61
2023-02-20T12:59:17.946Z,65.96
2023-02-20T13:01:34.233Z,67.60
2023-02-20T13:03:47.417Z,65.99
2023-02-20T13:05:52.124Z,67.71
2023-02-20T13:07:56.905Z,66.60
2023-02-20T13:10:06.579Z,67.16
2023-02-20T13:12:14.031Z,66.20
2023-02-20T13:14:24.955Z,68.08
2023-02-20T13:16:32.712Z,67.86
2023-02-20T13:18:40.881Z,67.34
2023-02-20T13:20:47.051Z,66.46
2023-02-20T13:23:00.710Z,67.88
2023-02-20T13:25:42.845Z,66.17
2023-02-20T13:27:45.936Z,65.12
2023-02-20T13:29:58.785Z,64.67
2023-02-20T13:32:03.384Z,64.41
2023-02-20T13:34:29.386Z,63.16
2023-02-20T13:36:41.945Z,65.23
2023-02-20T13:39:23.776Z,62.17
2023-02-20T13:41:28.230Z,62.04
2023-02-20T13:43:33.853Z,64.57
2023-02-20T13:45:39.361Z,62.86
2023-02-20T13:47:42.553Z,64.17
2023-02-20T13:49:58.372Z,65.24
2023-02-20T13:52:01.793Z,65.07
2023-02-20T13:54:21.870Z,64.27
2023-02-20T13:56:28.691Z,64.42
2023-02-20T13:58:31.682Z,64.96
2023-02-20T14:00:42.693Z,62.26
2023-02-20T14:02:46.209Z,63.47
2023-02-20T14:04:57.466Z,61.91
2023-02-20T14:07:00.648Z,64.18
2023-02-20T14:09:10.801Z,63.70
2023-02-20T14:11:16.880Z,62.76
2023-02-20T14:13:34.259Z,62.13
2023-02-20T14:15:47.343Z,62.38
2023-02-20T14:17:52.894Z,62.92
2023-02-20T14:20:05.398Z,62.09
2023-02-20T14:22:27.957Z,62.29
2023-02-20T14:24:31.139Z,60.92
2023-02-20T14:26:35.160Z,60.07
2023-02-20T14:28:46.371Z,60.73
2023-02-20T14:31:05.381Z,60.92
2023-02-20T14:33:21.579Z,61.07
2023-02-20T14:35:37.603Z,62.31
2023-02-20T14:37:46.056Z,61.51
2023-02-20T14:39:51.852Z,61.90
2023-02-20T14:41:56.997Z,60.83
2023-02-20T14:44:03.067Z,61.75
2023-02-20T14:46:08.213Z,60.58
2023-02-20T14:48:24.068Z,61.43
2023-02-20T14:50:29.170Z,60.10
2023-02-20T14:52:32.264Z,61.59
2023-02-20T14:54:35.408Z,61.44
2023-02-20T14:56:38.567Z,61.58
2023-02-20T14:58:41.600Z,60.32
2023-02-20T15:00:47.274Z,58.76
2023-02-20T15:02:55.200Z,60.00
2023-02-20T15:05:04.048Z,60.19
2023-02-20T15:07:08.332Z,60.36
2023-02-20T15:09:22.057Z,60.04
2023-02-20T15:11:26.176Z,60.35
2023-02-20T15:13:31.270Z,59.61
2023-02-20T15:15:37.234Z,60.53
2023-02-20T15:17:42.565Z,62.12
2023-02-20T15:19:45.796Z,59.38
2023-02-20T15:21:57.094Z,60.57
2023-02-20T15:24:14.525Z,59.94
2023-02-20T15:26:28.325Z,61.49
2023-02-20T15:28:31.965Z,60.39
2023-02-20T15:30:35.744Z,61.59
2023-02-20T15:32:41.949Z,62.15
2023-02-20T15:34:45.467Z,61.84
2023-02-20T15:36:49.723Z,61.59
2023-02-20T15:38:55.290Z,61.95
2023-02-20T15:40:59.743Z,60.79
2023-02-20T15:43:04.575Z,61.60
2023-02-20T15:45:13.746Z,62.32
2023-02-20T15:47:17.536Z,61.55
2023-02-20T15:49:21.953Z,62.11
2023-02-20T15:51:25.616Z,61.13
2023-02-20T15:53:30.796Z,62.07
2023-02-20T15:55:35.931Z,62.48
2023-02-20T15:57:39.043Z,62.28
2023-02-20T15:59:42.207Z,62.56
2023-02-20T16:01:45.788Z,62.72
2023-02-20T16:03:52.863Z,63.54
2023-02-20T16:05:58.542Z,62.61
2023-02-20T16:08:01.588Z,62.20
2023-02-20T16:10:05.601Z,63.55
2023-02-20T16:12:10.582Z,62.81
2023-02-20T16:14:15.182Z,63.06
2023-02-20T16:16:25.525Z,63.12
2023-02-20T16:18:31.502Z,63.00
2023-02-20T16:20:34.651Z,63.67
2023-02-20T16:22:39.127Z,63.34
2023-02-20T16:24:43.200Z,64.12
2023-02-20T16:26:49.125Z,63.35
2023-02-20T16:28:54.681Z,64.43
2023-02-20T16:30:57.907Z,64.03
2023-02-20T16:33:01.181Z,64.18
2023-02-20T16:35:04.483Z,64.18
2023-02-20T16:37:10.805Z,64.68
2023-02-20T16:39:25.733Z,65.19
2023-02-20T16:41:31.064Z,65.20
2023-02-20T16:43:34.162Z,65.35
2023-02-20T16:45:37.789Z,65.49
2023-02-20T16:47:41.244Z,65.54
2023-02-20T16:49:44.273Z,65.70
2023-02-20T16:51:51.100Z,66.16
2023-02-20T16:53:54.546Z,66.21
2023-02-20T16:55:58.994Z,66.27
2023-02-20T16:58:02.310Z,66.95
2023-02-20T17:00:06.422Z,66.47
2023-02-20T17:02:15.053Z,66.82
2023-02-20T17:04:19.719Z,66.08
2023-02-20T17:06:23.461Z,66.71
2023-02-20T17:08:26.658Z,67.18
2023-02-20T17:10:30.410Z,66.56
2023-02-20T17:12:35.189Z,66.86
2023-02-20T17:14:38.265Z,67.90
2023-02-20T17:16:41.332Z,68.28
2023-02-20T17:18:44.444Z,68.18
2023-02-20T17:20:47.689Z,67.19
2023-02-20T17:23:02.842Z,66.49
2023-02-20T17:25:07.898Z,67.92
2023-02-20T17:27:11.929Z,67.39
2023-02-20T17:29:16.830Z,68.41
2023-02-20T17:31:21.526Z,68.47
2023-02-20T17:33:26.080Z,69.40
2023-02-20T17:35:29.404Z,69.68
2023-02-20T17:37:34.610Z,69.55
2023-02-20T17:39:38.628Z,69.48
2023-02-20T17:41:41.835Z,69.23
2023-02-20T17:43:44.803Z,69.00
2023-02-20T17:45:49.281Z,68.53
2023-02-20T17:47:52.468Z,69.69
2023-02-20T17:49:56.870Z,69.53
2023-02-20T17:52:00.274Z,69.31
2023-02-20T17:54:04.017Z,71.27
2023-02-20T17:56:07.506Z,70.85
2023-02-20T17:58:10.587Z,69.31
2023-02-20T18:00:14.970Z,70.78
2023-02-20T18:02:20.437Z,69.20
2023-02-20T18:04:24.277Z,71.91
2023-02-20T18:06:27.416Z,71.04
2023-02-20T18:08:31.901Z,69.97
2023-02-20T18:10:34.967Z,70.45
2023-02-20T18:12:38.990Z,70.21
2023-02-20T18:14:42.100Z,70.66
2023-02-20T18:16:45.795Z,70.71
2023-02-20T18:18:50.422Z,71.01
2023-02-20T18:20:53.569Z,69.90
2023-02-20T18:22:56.866Z,69.71
2023-02-20T18:25:00.054Z,69.76
2023-02-20T18:27:03.280Z,70.41
2023-02-20T18:29:06.778Z,70.71
2023-02-20T18:31:10.528Z,71.00
2023-02-20T18:33:13.632Z,70.78
2023-02-20T18:35:19.163Z,72.40
2023-02-20T18:37:22.350Z,70.39
2023-02-20T18:39:25.513Z,72.51
2023-02-20T18:41:28.635Z,71.59
2023-02-20T18:43:32.581Z,71.47
2023-02-20T18:45:35.715Z,72.43
2023-02-20T18:47:38.801Z,73.20
2023-02-20T18:49:42.041Z,72.15
2023-02-20T18:51:46.548Z,73.50
2023-02-20T18:53:49.605Z,71.89
2023-02-20T18:55:52.725Z,71.59
2023-02-20T18:57:55.871Z,72.89
2023-02-20T18:59:58.992Z,72.54
2023-02-20T19:02:05.895Z,73.25
2023-02-20T19:04:09.097Z,72.31
2023-02-20T19:06:12.344Z,73.02
2023-02-20T19:08:16.985Z,72.24
2023-02-20T19:10:21.914Z,72.23
2023-02-20T19:12:25.034Z,72.23
2023-02-20T19:14:29.463Z,73.49
2023-02-20T19:16:32.779Z,72.42
2023-02-20T19:18:45.887Z,73.92
2023-02-20T19:20:53.015Z,74.43
2023-02-20T19:22:56.365Z,74.01
2023-02-20T19:25:01.541Z,73.75
2023-02-20T19:27:04.824Z,74.64
2023-02-20T19:29:08.304Z,74.48
2023-02-20T19:31:12.202Z,73.90
2023-02-20T19:33:15.535Z,74.43
2023-02-20T19:35:18.943Z,75.13
2023-02-20T19:37:22.907Z,74.95
2023-02-20T19:39:26.009Z,75.27
2023-02-20T19:41:30.429Z,75.35
2023-02-20T19:43:33.564Z,75.06
2023-02-20T19:45:36.681Z,75.24
2023-02-20T19:47:39.896Z,75.16
2023-02-20T19:49:46.008Z,75.04
2023-02-20T19:51:50.583Z,75.30
2023-02-20T19:53:53.670Z,75.01
2023-02-20T19:55:56.704Z,75.19
2023-02-20T19:58:02.892Z,75.06
2023-02-20T20:00:06.495Z,75.10
2023-02-20T20:02:15.470Z,75.23
2023-02-20T20:04:18.832Z,74.85
2023-02-20T20:06:26.630Z,75.54
2023-02-20T20:08:29.714Z,76.06
2023-02-20T20:10:33.167Z,76.04
2023-02-20T20:12:49.922Z,76.29
2023-02-20T20:14:54.732Z,76.04
2023-02-20T20:16:58.026Z,76.52
2023-02-20T20:19:01.478Z,75.98
2023-02-20T20:21:04.796Z,76.69
2023-02-20T20:23:10.263Z,76.53
2023-02-20T20:25:13.998Z,76.42
2023-02-20T20:27:20.657Z,76.61
2023-02-20T20:29:23.830Z,76.72
2023-02-20T20:31:29.884Z,76.81
2023-02-20T20:33:33.059Z,77.59
2023-02-20T20:35:36.242Z,77.46
2023-02-20T20:37:39.385Z,77.87
2023-02-20T20:39:42.529Z,77.76
2023-02-20T20:41:45.880Z,77.78
2023-02-20T20:43:49.239Z,78.68
2023-02-20T20:45:53.188Z,77.52
2023-02-20T20:47:57.829Z,78.09
2023-02-20T20:50:01.243Z,78.20
2023-02-20T20:52:04.618Z,78.18
2023-02-20T20:54:07.847Z,79.02
2023-02-20T20:56:11.216Z,79.39
2023-02-20T20:58:14.339Z,77.22
2023-02-20T21:00:21.944Z,77.89
2023-02-20T21:02:26.070Z,78.39
2023-02-20T21:04:31.733Z,78.08
2023-02-20T21:06:34.824Z,78.94
2023-02-20T21:08:38.014Z,78.75
2023-02-20T21:10:41.132Z,79.31
2023-02-20T21:12:44.633Z,80.64
2023-02-20T21:14:48.334Z,79.93
2023-02-20T21:16:51.527Z,79.89
2023-02-20T21:18:54.804Z,81.16
2023-02-20T21:20:59.267Z,81.06
2023-02-20T21:23:04.387Z,81.36
2023-02-20T21:25:07.583Z,81.00
2023-02-20T21:27:10.634Z,79.55
2023-02-20T21:29:13.758Z,79.86
2023-02-20T21:31:17.489Z,80.75
2023-02-20T21:33:20.911Z,80.40
2023-02-20T21:35:26.066Z,79.76
2023-02-20T21:37:30.593Z,80.47
2023-02-20T21:39:33.677Z,79.24
2023-02-20T21:41:54.697Z,79.61
2023-02-20T21:44:15.452Z,79.59
2023-02-20T21:46:19.588Z,80.67
2023-02-20T21:48:22.728Z,80.57
2023-02-20T21:50:25.769Z,81.72
2023-02-20T21:52:36.604Z,82.27
2023-02-20T21:54:41.285Z,81.35
2023-02-20T21:56:44.454Z,81.20
2023-02-20T21:59:01.584Z,82.05
2023-02-20T22:01:03.611Z,82.22
2023-02-20T22:03:05.621Z,82.92
2023-02-20T22:05:08.699Z,83.52
2023-02-20T22:07:29.324Z,83.23
2023-02-20T22:09:51.384Z,83.99
2023-02-20T22:12:12.110Z,82.51
2023-02-20T22:14:32.984Z,81.69
2023-02-20T22:16:53.496Z,81.86
2023-02-20T22:19:14.160Z,82.47
2023-02-20T22:21:38.298Z,83.08
2023-02-20T22:23:58.794Z,84.14
2023-02-20T22:26:22.459Z,83.42
2023-02-20T22:28:43.107Z,84.20
2023-02-20T22:31:03.772Z,83.88
2023-02-20T22:33:24.472Z,83.98
2023-02-20T22:35:44.929Z,84.38
2023-02-20T22:38:05.601Z,85.76
2023-02-20T22:40:27.013Z,84.62
2023-02-20T22:42:48.786Z,85.67
2023-02-20T22:45:09.738Z,85.69
2023-02-20T22:47:30.386Z,85.11
2023-02-20T22:49:51.136Z,85.79
2023-02-20T22:52:11.901Z,85.26
2023-02-20T22:54:32.673Z,85.78
2023-02-20T22:56:53.232Z,85.92
2023-02-20T22:59:16.041Z,85.30
2023-02-20T23:01:36.852Z,85.25
2023-02-20T23:03:57.415Z,85.21
2023-02-20T23:06:19.601Z,85.79
2023-02-20T23:08:40.962Z,84.36
2023-02-20T23:11:01.695Z,84.31
2023-02-20T23:13:22.319Z,85.50
2023-02-20T23:15:44.291Z,85.46
2023-02-20T23:18:05.491Z,85.61
2023-02-20T23:20:28.643Z,86.83
2023-02-20T23:22:48.975Z,86.58
2023-02-20T23:25:09.315Z,86.80
2023-02-20T23:27:29.700Z,86.73
2023-02-20T23:29:49.998Z,86.87
2023-02-20T23:32:12.003Z,87.11
2023-02-20T23:34:32.632Z,87.23
2023-02-20T23:36:53.134Z,87.14
2023-02-20T23:39:13.444Z,87.40
2023-02-20T23:41:33.973Z,87.21
2023-02-20T23:43:54.620Z,86.93
2023-02-20T23:46:14.960Z,85.47
2023-02-20T23:48:36.681Z,85.27
2023-02-20T23:50:57.430Z,85.28
2023-02-20T23:53:17.947Z,85.52
2023-02-20T23:55:38.404Z,86.26
2023-02-20T23:57:58.944Z,86.25
